Time;durP1;ratioP1;P1;durP2;ratioP2;P2;SDS_P1;SDS_P2;PMS_P1;PMS_P2;Temp;Humidity;BMP_temperature;BMP_pressure;BME280_temperature;BME280_humidity;BME280_pressure;Samples;Min_cycle;Max_cycle;Signal;HPM_P1;HPM_P2
2022/03/09 00:00:05;;;;;;;14.73;10.87;;;7.60;1.00;;;;;;6182323;23;20149;-90
2022/03/09 00:02:31;;;;;;;17.17;11.80;;;7.60;1.00;;;;;;6204598;23;20145;-90
2022/03/09 00:04:58;;;;;;;14.23;10.33;;;7.60;1.00;;;;;;6208491;23;20157;-90
2022/03/09 00:07:48;;;;;;;18.73;11.03;;;7.50;1.00;;;;;;6183957;23;20562;-93
2022/03/09 00:10:16;;;;;;;14.30;11.03;;;7.30;1.00;;;;;;6213403;22;20197;-91
2022/03/09 00:12:45;;;;;;;13.60;10.37;;;7.40;1.00;;;;;;6211754;23;20192;-96
2022/03/09 00:15:33;;;;;;;15.70;10.67;;;7.50;1.00;;;;;;6235507;23;20171;-93
2022/03/09 00:18:11;;;;;;;15.00;10.77;;;7.60;1.00;;;;;;6206763;23;20160;-95
2022/03/09 00:20:38;;;;;;;14.73;10.93;;;7.70;1.00;;;;;;6205614;23;20233;-95
2022/03/09 00:23:44;;;;;;;15.50;10.60;;;7.80;1.00;;;;;;6237409;22;20176;-88
2022/03/09 00:26:14;;;;;;;14.80;10.77;;;7.70;1.00;;;;;;6216242;23;20183;-91
2022/03/09 00:28:46;;;;;;;16.50;10.60;;;7.50;1.00;;;;;;6209267;23;20275;-89
2022/03/09 00:31:12;;;;;;;13.80;10.20;;;7.50;1.00;;;;;;6208621;23;20195;-91
2022/03/09 00:33:38;;;;;;;16.63;10.90;;;7.50;1.00;;;;;;6212838;22;20148;-89
2022/03/09 00:36:17;;;;;;;13.43;10.20;;;7.50;1.00;;;;;;6215492;22;20617;-89
2022/03/09 00:38:48;;;;;;;12.27;9.80;;;7.50;1.00;;;;;;6215340;22;20129;-89
2022/03/09 00:41:19;;;;;;;17.63;10.90;;;7.40;1.00;;;;;;6242074;22;20129;-89
2022/03/09 00:43:46;;;;;;;14.13;10.97;;;7.30;1.00;;;;;;6216835;23;20141;-88
2022/03/09 00:46:16;;;;;;;14.00;10.57;;;7.20;1.00;;;;;;6215194;23;20218;-89
2022/03/09 00:48:48;;;;;;;15.00;10.37;;;7.20;1.00;;;;;;6241669;23;20241;-91
2022/03/09 00:51:39;;;;;;;13.77;10.50;;;7.40;1.00;;;;;;6215873;23;20209;-91
2022/03/09 00:54:24;;;;;;;13.37;10.37;;;7.30;1.00;;;;;;6241168;22;20157;-90
2022/03/09 00:56:53;;;;;;;12.93;10.13;;;7.10;1.00;;;;;;6187745;23;20160;-89
2022/03/09 00:59:30;;;;;;;13.83;10.00;;;7.10;1.00;;;;;;6188278;23;20220;-89
2022/03/09 01:02:00;;;;;;;14.33;10.50;;;7.10;1.00;;;;;;6216602;22;20204;-90
2022/03/09 01:04:27;;;;;;;14.33;10.37;;;7.10;1.00;;;;;;6216133;23;20133;-90
2022/03/09 01:06:55;;;;;;;14.67;10.07;;;7.00;1.00;;;;;;6191276;23;20180;-89
2022/03/09 01:09:27;;;;;;;16.43;11.47;;;7.20;1.00;;;;;;6217294;22;20165;-89
2022/03/09 01:11:53;;;;;;;13.37;9.83;;;7.10;1.00;;;;;;6215931;23;20160;-91
2022/03/09 01:14:20;;;;;;;14.07;10.33;;;7.10;1.00;;;;;;6167771;23;20168;-88
2022/03/09 01:16:47;;;;;;;13.03;10.20;;;7.20;1.00;;;;;;6216760;22;20137;-89
2022/03/09 01:19:14;;;;;;;15.87;10.27;;;7.30;1.00;;;;;;6219431;22;20129;-89
2022/03/09 01:21:40;;;;;;;12.90;9.87;;;7.10;1.00;;;;;;6244751;22;20171;-89
2022/03/09 01:24:08;;;;;;;16.87;11.17;;;7.10;1.00;;;;;;6242230;22;20153;-89
2022/03/09 01:26:36;;;;;;;12.77;10.20;;;7.20;1.00;;;;;;6235997;22;20220;-89
2022/03/09 01:29:02;;;;;;;14.40;10.37;;;7.40;1.00;;;;;;6206099;23;20204;-92
2022/03/09 01:31:30;;;;;;;17.73;11.00;;;7.60;1.00;;;;;;6206996;23;20168;-90
2022/03/09 01:33:55;;;;;;;14.67;11.17;;;7.90;1.00;;;;;;6236371;22;20141;-89
2022/03/09 01:36:29;;;;;;;15.57;9.73;;;7.70;1.00;;;;;;6211983;23;20586;-89
2022/03/09 01:38:55;;;;;;;13.83;10.70;;;7.60;1.00;;;;;;6207294;23;20153;-94
2022/03/09 01:41:22;;;;;;;13.70;10.87;;;7.50;1.00;;;;;;6208039;23;20169;-92
2022/03/09 01:44:13;;;;;;;14.10;10.70;;;7.30;1.00;;;;;;6233110;23;20137;-95
2022/03/09 01:46:40;;;;;;;12.93;9.73;;;7.20;1.00;;;;;;6208239;23;20188;-88
2022/03/09 01:49:18;;;;;;;13.00;9.63;;;7.20;1.00;;;;;;6214813;23;20204;-88
2022/03/09 01:51:50;;;;;;;15.30;10.13;;;7.20;1.00;;;;;;6218200;23;20167;-88
2022/03/09 01:54:19;;;;;;;13.10;10.13;;;7.20;1.00;;;;;;6190464;23;20172;-90
2022/03/09 01:56:49;;;;;;;11.40;9.40;;;7.30;1.00;;;;;;6212130;23;20164;-88
2022/03/09 01:59:25;;;;;;;12.57;9.70;;;7.10;1.00;;;;;;6212897;23;20204;-89
2022/03/09 02:01:53;;;;;;;13.27;9.50;;;7.00;1.00;;;;;;6213394;23;20601;-94
2022/03/09 02:04:28;;;;;;;14.97;10.27;;;7.10;1.00;;;;;;6211640;23;20164;-92
2022/03/09 02:06:57;;;;;;;14.37;10.37;;;7.20;1.00;;;;;;6184820;23;20153;-94
2022/03/09 02:09:41;;;;;;;12.47;9.57;;;7.20;1.00;;;;;;6233486;23;20189;-95
2022/03/09 02:12:11;;;;;;;15.53;10.33;;;7.60;1.00;;;;;;6209195;23;20176;-93
2022/03/09 02:14:51;;;;;;;12.57;9.67;;;7.40;1.00;;;;;;6213169;23;20272;-91
2022/03/09 02:17:30;;;;;;;13.30;9.90;;;7.30;1.00;;;;;;6212061;23;20159;-95
2022/03/09 02:19:58;;;;;;;11.53;10.13;;;7.20;1.00;;;;;;6240988;22;20216;-96
2022/03/09 02:22:31;;;;;;;13.13;10.20;;;7.40;1.00;;;;;;6191069;22;20164;-89
2022/03/09 02:24:58;;;;;;;15.00;10.80;;;7.10;1.00;;;;;;6216156;23;20176;-88
2022/03/09 02:27:24;;;;;;;14.77;10.23;;;7.10;1.00;;;;;;6186523;23;20164;-89
2022/03/09 02:29:53;;;;;;;13.10;10.10;;;7.00;1.00;;;;;;6217399;22;20180;-89
2022/03/09 02:32:19;;;;;;;13.77;10.53;;;7.40;1.00;;;;;;6218697;22;20153;-88
2022/03/09 02:34:52;;;;;;;14.37;10.37;;;7.30;1.00;;;;;;6212296;23;20205;-88
2022/03/09 02:37:26;;;;;;;15.13;10.70;;;7.40;1.00;;;;;;6210454;23;20453;-89
2022/03/09 02:39:52;;;;;;;13.07;10.67;;;7.40;1.00;;;;;;6184012;23;20202;-90
2022/03/09 02:42:18;;;;;;;15.37;10.47;;;7.50;1.00;;;;;;6203700;22;20159;-95
2022/03/09 02:44:44;;;;;;;13.67;9.90;;;7.20;1.00;;;;;;6173534;23;20153;-95
2022/03/09 02:47:13;;;;;;;13.23;9.80;;;6.80;1.00;;;;;;6171284;23;20157;-94
2022/03/09 02:49:39;;;;;;;15.07;10.43;;;6.70;1.00;;;;;;6196837;23;20192;-96
2022/03/09 02:52:08;;;;;;;16.50;11.00;;;6.60;1.00;;;;;;6229721;23;20250;-96
2022/03/09 02:54:37;;;;;;;15.17;9.93;;;6.60;1.00;;;;;;6203840;23;20142;-93
2022/03/09 02:57:03;;;;;;;12.80;9.83;;;6.50;1.00;;;;;;6204007;23;20494;-91
2022/03/09 02:59:29;;;;;;;13.20;10.13;;;6.50;1.00;;;;;;6202744;23;20164;-89
2022/03/09 03:01:55;;;;;;;14.43;9.83;;;6.40;1.00;;;;;;6206246;23;20164;-88
2022/03/09 03:04:21;;;;;;;13.23;9.77;;;6.50;1.00;;;;;;6213720;23;20160;-86
2022/03/09 03:06:49;;;;;;;16.33;10.37;;;6.50;1.00;;;;;;6216233;22;20193;-89
2022/03/09 03:09:17;;;;;;;13.50;9.83;;;6.70;1.00;;;;;;6212530;23;20223;-92
2022/03/09 03:11:44;;;;;;;13.80;11.07;;;6.70;1.00;;;;;;6215788;22;20133;-89
2022/03/09 03:14:09;;;;;;;12.77;10.23;;;6.90;1.00;;;;;;6216958;23;20342;-93
2022/03/09 03:16:39;;;;;;;14.53;9.80;;;6.90;1.00;;;;;;6211900;23;20153;-92
2022/03/09 03:19:04;;;;;;;14.83;10.13;;;6.60;1.00;;;;;;6202203;23;20164;-96
2022/03/09 03:21:31;;;;;;;16.77;10.20;;;6.50;1.00;;;;;;6206860;23;20172;-96
2022/03/09 03:24:01;;;;;;;13.40;10.47;;;6.40;1.00;;;;;;6207478;23;20177;-96
2022/03/09 03:26:28;;;;;;;13.77;10.33;;;6.60;1.00;;;;;;6206611;23;20157;-96
2022/03/09 03:28:54;;;;;;;15.27;9.70;;;6.60;1.00;;;;;;6187616;23;20215;-93
2022/03/09 03:31:21;;;;;;;13.73;10.20;;;6.70;1.00;;;;;;6214651;22;20149;-88
2022/03/09 03:33:48;;;;;;;14.60;10.53;;;6.60;1.00;;;;;;6190035;23;20145;-88
2022/03/09 03:36:21;;;;;;;14.37;10.23;;;6.70;1.00;;;;;;6240283;22;20129;-88
2022/03/09 03:38:49;;;;;;;16.13;10.57;;;7.00;1.00;;;;;;6192988;22;20152;-90
2022/03/09 03:41:16;;;;;;;12.87;10.07;;;7.30;1.00;;;;;;6243727;22;20161;-87
2022/03/09 03:43:41;;;;;;;15.23;10.43;;;7.10;1.00;;;;;;6215853;23;20164;-93
2022/03/09 03:46:07;;;;;;;15.67;10.67;;;7.10;1.00;;;;;;6243022;22;20153;-91
2022/03/09 03:48:35;;;;;;;12.93;10.37;;;7.20;1.00;;;;;;6198867;23;20153;-89
2022/03/09 03:51:02;;;;;;;14.30;10.20;;;7.30;1.00;;;;;;6222722;23;20488;-91
2022/03/09 03:53:32;;;;;;;18.37;10.10;;;6.90;1.00;;;;;;6195901;23;20153;-91
2022/03/09 03:55:58;;;;;;;12.60;10.33;;;6.70;1.00;;;;;;6199986;23;20288;-88
2022/03/09 03:58:25;;;;;;;14.17;10.30;;;6.70;1.00;;;;;;6203968;23;20145;-91
2022/03/09 04:00:52;;;;;;;14.47;10.60;;;6.60;1.00;;;;;;6212307;23;20141;-90
2022/03/09 04:03:18;;;;;;;17.40;10.97;;;6.60;1.00;;;;;;6214763;23;20141;-90
2022/03/09 04:05:44;;;;;;;15.47;10.67;;;6.60;1.00;;;;;;6205158;23;20169;-87
2022/03/09 04:08:11;;;;;;;17.53;10.83;;;6.60;1.00;;;;;;6178033;23;20245;-89
2022/03/09 04:10:37;;;;;;;14.60;10.20;;;6.60;1.00;;;;;;6201186;23;20196;-90
2022/03/09 04:13:05;;;;;;;13.07;10.10;;;6.70;1.00;;;;;;6204572;23;20231;-88
2022/03/09 04:15:32;;;;;;;13.80;10.50;;;6.50;1.00;;;;;;6214989;23;20167;-89
2022/03/09 04:17:58;;;;;;;12.90;9.67;;;6.50;1.00;;;;;;6214813;23;20164;-89
2022/03/09 04:20:24;;;;;;;13.87;10.13;;;6.60;1.00;;;;;;6207819;23;20165;-91
2022/03/09 04:22:49;;;;;;;13.60;10.47;;;6.60;1.00;;;;;;6185642;23;20168;-88
2022/03/09 04:25:15;;;;;;;14.03;10.13;;;6.60;1.00;;;;;;6206308;23;20156;-91
2022/03/09 04:27:41;;;;;;;16.57;10.37;;;6.60;1.00;;;;;;6199121;23;20586;-95
2022/03/09 04:30:09;;;;;;;13.67;10.10;;;6.50;1.00;;;;;;6202450;23;20219;-95
2022/03/09 04:32:39;;;;;;;14.63;10.40;;;6.50;1.00;;;;;;6201533;23;20207;-93
2022/03/09 04:35:06;;;;;;;13.57;9.70;;;6.50;1.00;;;;;;6181956;22;20184;-88
2022/03/09 04:37:33;;;;;;;13.53;10.33;;;6.50;1.00;;;;;;6234093;22;20141;-91
2022/03/09 04:40:23;;;;;;;14.40;9.90;;;6.70;1.00;;;;;;6184274;23;20183;-91
2022/03/09 04:42:49;;;;;;;13.67;9.57;;;6.50;1.00;;;;;;6239422;23;20133;-89
2022/03/09 04:45:34;;;;;;;16.17;11.13;;;6.50;1.00;;;;;;6234712;23;20161;-90
2022/03/09 04:48:04;;;;;;;14.07;10.50;;;6.40;1.00;;;;;;6183016;23;20153;-95
2022/03/09 04:50:29;;;;;;;13.27;10.03;;;6.60;1.00;;;;;;6202853;23;20196;-94
2022/03/09 04:52:56;;;;;;;16.27;10.67;;;6.60;1.00;;;;;;6207539;23;20153;-95
2022/03/09 04:55:22;;;;;;;13.60;9.10;;;6.70;1.00;;;;;;6208991;23;20157;-93
2022/03/09 04:57:47;;;;;;;12.57;9.30;;;6.40;1.00;;;;;;6208641;23;20155;-93
2022/03/09 05:00:17;;;;;;;15.63;9.93;;;6.30;1.00;;;;;;6211304;23;20157;-94
2022/03/09 05:02:44;;;;;;;18.27;10.00;;;6.50;1.00;;;;;;6211065;23;20134;-91
2022/03/09 05:05:10;;;;;;;14.80;9.47;;;6.40;1.00;;;;;;6237734;22;20187;-96
2022/03/09 05:07:41;;;;;;;19.50;10.10;;;6.60;1.00;;;;;;6201392;23;20145;-91
2022/03/09 05:10:09;;;;;;;13.60;9.67;;;6.20;1.00;;;;;;6196826;23;20199;-96
2022/03/09 05:12:35;;;;;;;12.73;9.30;;;6.30;1.00;;;;;;6199276;23;20153;-93
2022/03/09 05:15:05;;;;;;;14.33;10.73;;;6.30;1.00;;;;;;6197821;22;20239;-95
2022/03/09 05:17:31;;;;;;;12.53;9.37;;;6.30;1.00;;;;;;6197170;23;20153;-94
2022/03/09 05:19:57;;;;;;;13.97;10.43;;;6.20;1.00;;;;;;6222756;23;20582;-94
2022/03/09 05:22:22;;;;;;;14.50;8.90;;;5.90;1.00;;;;;;6234520;22;20145;-95
2022/03/09 05:24:48;;;;;;;13.13;9.57;;;5.90;1.00;;;;;;6198289;23;20243;-95
2022/03/09 05:27:14;;;;;;;12.70;9.47;;;5.80;1.00;;;;;;6200677;23;20590;-94
2022/03/09 05:29:41;;;;;;;11.80;9.10;;;5.80;1.00;;;;;;6203200;23;20184;-95
2022/03/09 05:32:07;;;;;;;14.57;9.90;;;5.60;1.00;;;;;;6184781;23;20157;-94
2022/03/09 05:34:33;;;;;;;14.03;9.73;;;5.70;1.00;;;;;;6206204;23;20180;-95
2022/03/09 05:36:59;;;;;;;17.73;9.60;;;5.60;1.00;;;;;;6215227;23;20157;-94
2022/03/09 05:39:24;;;;;;;14.23;9.77;;;5.70;1.00;;;;;;6213263;23;20160;-95
2022/03/09 05:41:51;;;;;;;13.70;9.90;;;5.50;1.00;;;;;;6205452;23;20616;-90
2022/03/09 05:44:17;;;;;;;13.80;9.33;;;5.50;1.00;;;;;;6205452;23;20150;-88
2022/03/09 05:46:42;;;;;;;14.90;9.97;;;5.50;1.00;;;;;;6203575;23;20156;-89
2022/03/09 05:49:09;;;;;;;17.53;10.37;;;5.60;1.00;;;;;;6205907;23;20208;-95
2022/03/09 05:51:36;;;;;;;13.10;10.10;;;5.50;1.00;;;;;;6196101;23;20150;-94
2022/03/09 05:54:01;;;;;;;12.83;9.63;;;5.60;1.00;;;;;;6196569;23;20717;-91
2022/03/09 05:56:28;;;;;;;16.03;10.63;;;5.50;1.00;;;;;;6195699;23;20586;-91
2022/03/09 05:58:54;;;;;;;16.43;9.60;;;5.80;1.00;;;;;;6201669;23;20192;-91
2022/03/09 06:01:21;;;;;;;15.20;9.97;;;5.80;1.00;;;;;;6205229;23;20243;-94
2022/03/09 06:03:46;;;;;;;16.40;10.37;;;6.00;1.00;;;;;;6198828;23;20188;-93
2022/03/09 06:06:12;;;;;;;15.77;10.07;;;6.10;1.00;;;;;;6195249;23;20161;-95
2022/03/09 06:08:39;;;;;;;15.37;11.13;;;6.00;1.00;;;;;;6196493;23;20227;-93
2022/03/09 06:11:06;;;;;;;18.00;10.63;;;5.80;1.00;;;;;;6197054;23;20153;-93
2022/03/09 06:13:32;;;;;;;14.67;10.73;;;5.70;1.00;;;;;;6176388;23;20157;-92
2022/03/09 06:15:57;;;;;;;14.60;9.80;;;5.40;1.00;;;;;;6199733;22;20207;-92
2022/03/09 06:18:23;;;;;;;16.70;10.93;;;5.50;1.00;;;;;;6199013;23;20141;-91
2022/03/09 06:20:50;;;;;;;14.23;9.67;;;5.50;1.00;;;;;;6222677;22;20185;-93
2022/03/09 06:23:17;;;;;;;15.13;10.97;;;5.50;1.00;;;;;;6197059;23;20157;-95
2022/03/09 06:25:43;;;;;;;15.77;11.07;;;5.50;1.00;;;;;;6229131;23;20140;-96
2022/03/09 06:28:08;;;;;;;20.77;11.97;;;5.60;1.00;;;;;;6190441;22;20157;-91
2022/03/09 06:30:37;;;;;;;16.83;11.10;;;5.70;1.00;;;;;;6238345;23;20192;-88
2022/03/09 06:33:02;;;;;;;17.23;11.10;;;5.70;1.00;;;;;;6214596;23;20185;-95
2022/03/09 06:35:31;;;;;;;17.53;11.37;;;5.50;1.00;;;;;;6205789;23;20177;-95
2022/03/09 06:37:57;;;;;;;16.83;11.03;;;5.60;1.00;;;;;;6208500;23;20157;-94
2022/03/09 06:40:23;;;;;;;17.73;10.67;;;5.50;1.00;;;;;;6204806;23;20172;-93
2022/03/09 06:42:50;;;;;;;19.27;10.83;;;5.70;1.00;;;;;;6203126;23;20149;-92
2022/03/09 06:45:16;;;;;;;17.67;11.73;;;6.10;1.00;;;;;;6200380;23;20165;-94
2022/03/09 06:47:41;;;;;;;19.33;11.83;;;6.00;1.00;;;;;;6199861;23;20232;-90
2022/03/09 06:50:08;;;;;;;20.77;12.27;;;5.90;1.00;;;;;;6196783;23;20680;-88
2022/03/09 06:52:35;;;;;;;18.73;12.47;;;6.00;1.00;;;;;;6200067;23;20239;-92
2022/03/09 06:55:03;;;;;;;17.47;11.87;;;6.00;1.00;;;;;;6195748;23;20172;-91
2022/03/09 06:57:37;;;;;;;22.17;12.03;;;6.10;1.00;;;;;;6229918;23;20582;-91
2022/03/09 07:00:25;;;;;;;19.27;11.80;;;6.10;1.00;;;;;;6235516;23;20157;-90
2022/03/09 07:02:53;;;;;;;17.23;11.70;;;6.10;1.00;;;;;;6240683;22;20165;-88
2022/03/09 07:05:19;;;;;;;18.27;12.07;;;6.10;1.00;;;;;;6216548;23;20157;-88
2022/03/09 07:07:45;;;;;;;19.00;12.20;;;6.20;1.00;;;;;;6214611;23;20138;-90
2022/03/09 07:10:13;;;;;;;18.20;11.53;;;6.20;1.00;;;;;;6209739;23;20711;-87
2022/03/09 07:12:40;;;;;;;22.57;12.03;;;6.20;1.00;;;;;;6208994;23;20211;-90
2022/03/09 07:15:17;;;;;;;23.17;12.77;;;6.30;1.00;;;;;;6204762;23;20157;-90
2022/03/09 07:17:44;;;;;;;22.37;12.87;;;6.30;1.00;;;;;;6203339;23;20204;-92
2022/03/09 07:20:12;;;;;;;18.67;13.77;;;6.40;1.00;;;;;;6201285;23;20506;-94
2022/03/09 07:22:42;;;;;;;25.27;14.63;;;6.40;1.00;;;;;;6232778;23;20156;-94
2022/03/09 07:25:13;;;;;;;21.03;12.90;;;6.70;1.00;;;;;;6182332;23;20642;-91
2022/03/09 07:27:39;;;;;;;23.90;13.43;;;6.50;1.00;;;;;;6202070;23;20149;-93
2022/03/09 07:30:17;;;;;;;22.00;13.17;;;6.60;1.00;;;;;;6239473;22;20188;-90
2022/03/09 07:32:53;;;;;;;21.33;12.57;;;6.70;1.00;;;;;;6239014;22;20164;-92
2022/03/09 07:35:22;;;;;;;20.87;12.77;;;6.70;1.00;;;;;;6210108;22;20177;-95
2022/03/09 07:37:51;;;;;;;18.10;12.70;;;7.00;1.00;;;;;;6191879;22;20160;-93
2022/03/09 07:40:24;;;;;;;22.20;11.97;;;7.10;1.00;;;;;;6241485;22;20147;-87
2022/03/09 07:42:50;;;;;;;20.07;13.50;;;7.40;1.00;;;;;;6215803;23;20180;-91
2022/03/09 07:45:21;;;;;;;23.03;13.90;;;7.50;1.00;;;;;;6214102;23;20149;-92
2022/03/09 07:47:48;;;;;;;20.97;12.60;;;7.70;1.00;;;;;;6201886;22;20201;-91
2022/03/09 07:53:45;;;;;;;22.43;13.37;;;7.90;1.00;;;;;;6202673;23;20582;-94
2022/03/09 07:56:20;;;;;;;21.87;13.63;;;7.90;1.00;;;;;;6211719;22;20149;-96
2022/03/09 07:58:46;;;;;;;25.67;15.10;;;7.80;1.00;;;;;;6185945;22;20158;-95
2022/03/09 08:01:43;;;;;;;21.27;14.30;;;7.90;1.00;;;;;;6183192;23;20192;-95
2022/03/09 08:04:15;;;;;;;23.13;14.77;;;7.90;1.00;;;;;;6212937;22;20156;-94
2022/03/09 08:06:43;;;;;;;23.10;15.13;;;7.90;1.00;;;;;;6212431;22;20166;-94
2022/03/09 08:09:12;;;;;;;22.43;14.60;;;8.00;1.00;;;;;;6161765;22;20173;-96
2022/03/09 08:11:39;;;;;;;22.23;14.67;;;8.00;1.00;;;;;;6177065;23;20161;-95
2022/03/09 08:14:46;;;;;;;25.23;15.20;;;8.10;1.00;;;;;;6180801;22;20154;-96
2022/03/09 08:17:15;;;;;;;23.20;15.30;;;8.30;1.00;;;;;;6187506;22;20161;-94
2022/03/09 08:19:45;;;;;;;23.10;15.37;;;8.40;1.00;;;;;;6179373;23;20196;-95
2022/03/09 08:22:18;;;;;;;23.70;15.20;;;8.50;1.00;;;;;;6175494;23;20145;-94
2022/03/09 08:25:11;;;;;;;24.90;15.00;;;8.40;1.00;;;;;;6172805;23;20154;-93
2022/03/09 08:28:07;;;;;;;24.80;16.13;;;8.60;1.00;;;;;;6198021;22;20161;-93
2022/03/09 08:31:10;;;;;;;26.70;16.57;;;8.70;1.00;;;;;;6194806;22;20247;-95
2022/03/09 08:33:45;;;;;;;26.03;16.23;;;8.90;1.00;;;;;;6177220;22;20160;-93
2022/03/09 08:36:12;;;;;;;26.67;16.67;;;9.00;1.00;;;;;;6177994;22;20169;-93
2022/03/09 08:38:45;;;;;;;25.03;16.53;;;9.00;1.00;;;;;;6124201;23;20237;-93
2022/03/09 08:41:11;;;;;;;23.73;15.53;;;9.00;1.00;;;;;;6153261;23;20189;-95
2022/03/09 08:43:40;;;;;;;26.10;16.73;;;9.00;1.00;;;;;;6189273;22;20153;-93
2022/03/09 08:46:20;;;;;;;25.43;15.90;;;9.10;1.00;;;;;;6187191;22;20138;-90
2022/03/09 08:51:20;;;;;;;25.63;16.67;;;9.30;1.00;;;;;;6151100;23;20243;-93
2022/03/09 08:53:49;;;;;;;29.67;17.30;;;9.50;1.00;;;;;;6149681;23;20668;-92
2022/03/09 08:56:17;;;;;;;28.97;17.73;;;9.60;1.00;;;;;;6142305;23;20218;-87
2022/03/09 08:58:43;;;;;;;28.37;17.67;;;9.70;1.00;;;;;;6152549;23;20199;-88
2022/03/09 09:01:30;;;;;;;28.70;17.30;;;9.80;1.00;;;;;;6152798;23;20589;-88
2022/03/09 09:04:01;;;;;;;27.47;17.33;;;10.10;1.00;;;;;;6150706;23;20148;-95
2022/03/09 09:06:30;;;;;;;29.27;18.77;;;10.20;1.00;;;;;;6147991;23;20234;-93
2022/03/09 09:09:04;;;;;;;30.43;17.27;;;10.30;1.00;;;;;;6148666;23;20171;-95
2022/03/09 09:12:20;;;;;;;28.47;18.80;;;10.40;1.00;;;;;;6144764;23;20163;-94
2022/03/09 09:14:48;;;;;;;31.60;17.73;;;10.60;1.00;;;;;;6144257;23;20171;-94
2022/03/09 09:17:18;;;;;;;27.73;17.83;;;10.60;1.00;;;;;;6151819;23;20158;-90
2022/03/09 09:19:59;;;;;;;29.13;17.70;;;10.50;1.00;;;;;;6152684;23;20171;-89
2022/03/09 09:22:31;;;;;;;31.37;18.50;;;10.60;1.00;;;;;;6152398;23;20187;-92
2022/03/09 09:24:57;;;;;;;27.43;18.03;;;11.00;1.00;;;;;;6150619;23;20159;-92
2022/03/09 09:27:23;;;;;;;28.20;18.13;;;10.80;1.00;;;;;;6153132;23;20161;-92
2022/03/09 09:29:49;;;;;;;27.80;18.47;;;10.90;1.00;;;;;;6149784;23;20221;-90
2022/03/09 09:32:16;;;;;;;30.70;18.37;;;11.00;1.00;;;;;;6144077;23;20187;-91
2022/03/09 09:34:45;;;;;;;26.90;18.67;;;11.00;1.00;;;;;;6142595;23;20174;-93
2022/03/09 09:37:10;;;;;;;27.97;18.93;;;11.20;1.00;;;;;;6120024;23;20159;-91
2022/03/09 09:39:44;;;;;;;29.37;18.37;;;11.30;1.00;;;;;;6148743;23;20190;-90
2022/03/09 09:42:11;;;;;;;27.20;18.83;;;11.60;1.00;;;;;;6126230;23;20166;-91
2022/03/09 09:44:42;;;;;;;26.90;18.87;;;11.70;1.00;;;;;;6150079;23;20143;-91
2022/03/09 09:47:14;;;;;;;34.27;20.40;;;12.00;1.00;;;;;;6142645;23;20159;-88
2022/03/09 09:49:41;;;;;;;26.73;17.87;;;12.30;1.00;;;;;;6142981;23;20326;-87
2022/03/09 09:52:08;;;;;;;28.23;18.33;;;12.60;1.00;;;;;;6140305;23;20181;-89
2022/03/09 09:54:36;;;;;;;27.20;18.50;;;12.70;1.00;;;;;;6139213;23;20211;-93
2022/03/09 09:57:04;;;;;;;32.83;19.07;;;12.90;1.00;;;;;;6139119;23;20163;-93
2022/03/09 09:59:44;;;;;;;30.30;19.43;;;12.90;1.00;;;;;;6136970;23;20162;-90
2022/03/09 10:02:12;;;;;;;29.80;18.60;;;12.90;1.00;;;;;;6138226;23;20579;-89
2022/03/09 10:04:40;;;;;;;28.03;18.10;;;12.90;1.00;;;;;;6139063;23;20274;-92
2022/03/09 10:07:09;;;;;;;29.30;18.57;;;12.80;1.00;;;;;;6143831;23;20177;-93
2022/03/09 10:09:43;;;;;;;28.13;18.77;;;12.60;1.00;;;;;;6154928;23;20186;-94
2022/03/09 10:12:36;;;;;;;31.20;19.30;;;12.50;1.00;;;;;;6172318;23;20149;-92
2022/03/09 10:15:28;;;;;;;28.13;18.43;;;12.70;1.00;;;;;;6152771;23;20174;-93
2022/03/09 10:18:17;;;;;;;29.27;18.67;;;12.70;1.00;;;;;;6145834;23;20146;-94
2022/03/09 10:20:50;;;;;;;33.10;19.37;;;12.50;1.00;;;;;;6169256;23;20155;-94
2022/03/09 10:23:32;;;;;;;32.70;20.00;;;12.40;1.00;;;;;;6141432;23;20222;-94
2022/03/09 10:26:48;;;;;;;28.83;19.13;;;12.60;1.00;;;;;;6133783;23;20154;-92
2022/03/09 10:29:21;;;;;;;31.40;18.43;;;12.90;1.00;;;;;;6170987;23;20186;-94
2022/03/09 10:31:50;;;;;;;32.93;20.20;;;12.70;1.00;;;;;;6118069;23;20262;-93
2022/03/09 10:34:35;;;;;;;29.23;19.00;;;13.20;1.00;;;;;;6114557;23;20231;-91
2022/03/09 10:37:06;;;;;;;31.87;19.23;;;13.20;1.00;;;;;;6139679;23;20212;-92
2022/03/09 10:39:53;;;;;;;31.20;20.57;;;13.10;1.00;;;;;;6118732;23;20162;-92
2022/03/09 10:42:25;;;;;;;30.13;19.73;;;13.10;1.00;;;;;;6145815;23;20156;-91
2022/03/09 10:44:54;;;;;;;33.23;21.33;;;13.30;1.00;;;;;;6118765;23;20189;-93
2022/03/09 10:47:54;;;;;;;34.13;21.60;;;13.60;1.00;;;;;;6141845;23;20150;-91
2022/03/09 10:50:28;;;;;;;34.07;20.73;;;13.70;1.00;;;;;;6144628;23;20195;-93
2022/03/09 10:53:06;;;;;;;32.40;20.10;;;13.70;1.00;;;;;;6146424;23;20159;-93
2022/03/09 10:55:38;;;;;;;32.60;20.07;;;13.80;1.00;;;;;;6147056;23;20157;-92
2022/03/09 11:01:29;;;;;;;33.67;21.17;;;14.00;1.00;;;;;;6178043;23;20237;-94
2022/03/09 11:07:56;;;;;;;28.90;20.43;;;14.20;1.00;;;;;;6211156;23;20153;-93
2022/03/09 11:10:37;;;;;;;34.50;21.20;;;14.30;1.00;;;;;;6208228;23;20206;-92
2022/03/09 11:13:10;;;;;;;35.37;22.30;;;14.50;1.00;;;;;;6209153;23;20165;-93
2022/03/09 11:15:55;;;;;;;38.80;21.97;;;14.50;1.00;;;;;;6205970;23;20151;-93
2022/03/09 11:18:28;;;;;;;33.93;21.57;;;14.50;1.00;;;;;;6212017;23;20143;-92
2022/03/09 11:24:39;;;;;;;29.17;20.43;;;14.90;1.00;;;;;;6203626;23;20253;-92
2022/03/09 11:27:20;;;;;;;33.07;21.27;;;14.70;1.00;;;;;;6208459;23;20130;-91
2022/03/09 11:29:49;;;;;;;30.40;20.97;;;14.70;1.00;;;;;;6208209;23;20185;-90
2022/03/09 11:32:57;;;;;;;32.97;21.63;;;14.90;1.00;;;;;;6212295;23;20187;-93
2022/03/09 11:35:48;;;;;;;33.70;21.37;;;15.10;99.90;;;;;;6203194;23;20189;-93
2022/03/09 11:38:52;;;;;;;31.33;20.53;;;15.40;99.90;;;;;;6197847;23;20153;-91
2022/03/09 11:41:35;;;;;;;30.87;20.97;;;15.40;99.90;;;;;;6143494;23;20150;-93
2022/03/09 11:47:13;;;;;;;32.20;21.50;;;14.90;99.90;;;;;;6148929;23;20214;-93
2022/03/09 11:53:01;;;;;;;32.73;21.63;;;15.30;99.90;;;;;;6162823;23;20213;-89
2022/03/09 12:01:15;;;;;;;32.03;21.00;;;15.30;99.90;;;;;;6197510;22;20193;-94
2022/03/09 12:03:42;;;;;;;31.87;21.03;;;15.30;99.90;;;;;;6092405;23;20217;-93
2022/03/09 12:09:11;;;;;;;31.83;21.80;;;15.40;99.90;;;;;;6203282;22;20555;-94
2022/03/09 12:12:06;;;;;;;33.67;22.33;;;15.50;99.90;;;;;;6178798;23;20154;-93
2022/03/09 12:15:09;;;;;;;34.70;21.67;;;15.60;99.90;;;;;;6174683;23;20162;-92
2022/03/09 12:17:48;;;;;;;34.37;24.10;;;15.70;99.90;;;;;;6175674;23;20160;-94
2022/03/09 12:20:57;;;;;;;32.90;22.93;;;15.80;99.90;;;;;;6168756;23;20188;-93
2022/03/09 12:23:33;;;;;;;37.07;23.10;;;16.00;99.90;;;;;;6205837;22;20172;-94
2022/03/09 12:26:45;;;;;;;32.13;22.43;;;16.10;99.90;;;;;;6183485;23;20193;-94
2022/03/09 12:29:51;;;;;;;33.37;21.73;;;16.10;99.90;;;;;;6197052;22;20181;-95
2022/03/09 12:32:42;;;;;;;33.73;23.07;;;16.30;99.90;;;;;;6211170;22;20153;-94
2022/03/09 12:35:14;;;;;;;38.20;21.50;;;16.50;99.90;;;;;;6135348;22;20158;-92
2022/03/09 12:37:54;;;;;;;36.23;21.57;;;16.70;99.90;;;;;;6178201;23;20149;-92
2022/03/09 12:40:47;;;;;;;41.20;23.27;;;16.90;99.90;;;;;;6152719;23;20169;-94
2022/03/09 12:43:51;;;;;;;38.10;21.60;;;16.50;99.90;;;;;;6195022;23;20157;-90
2022/03/09 12:46:21;;;;;;;37.37;23.07;;;16.80;99.90;;;;;;6207619;23;20134;-91
2022/03/09 12:48:59;;;;;;;30.20;19.90;;;16.80;99.90;;;;;;6172758;23;20165;-90
2022/03/09 12:51:27;;;;;;;29.60;20.10;;;16.90;99.90;;;;;;6147973;23;20270;-92
2022/03/09 12:53:56;;;;;;;30.73;21.03;;;16.80;99.90;;;;;;6176841;23;20155;-91
2022/03/09 12:56:28;;;;;;;31.50;21.27;;;16.90;99.90;;;;;;6180487;23;20142;-92
2022/03/09 12:59:19;;;;;;;23.70;17.17;;;17.00;99.90;;;;;;6207611;23;20153;-90
2022/03/09 13:02:13;;;;;;;31.83;21.80;;;17.20;99.90;;;;;;6180385;22;20269;-91
2022/03/09 13:04:58;;;;;;;45.53;30.73;;;17.10;99.90;;;;;;6183890;23;20138;-91
2022/03/09 13:07:27;;;;;;;26.47;18.07;;;17.00;99.90;;;;;;6183740;23;20168;-89
2022/03/09 13:10:12;;;;;;;27.10;17.83;;;16.80;99.90;;;;;;6132294;23;20189;-90
2022/03/09 13:13:02;;;;;;;22.20;15.53;;;16.70;99.90;;;;;;6182957;23;20150;-90
2022/03/09 13:15:52;;;;;;;23.80;16.53;;;16.60;99.90;;;;;;6208746;22;20172;-89
2022/03/09 13:19:03;;;;;;;29.27;17.57;;;16.70;99.90;;;;;;6213971;22;20155;-92
2022/03/09 13:22:04;;;;;;;27.47;17.43;;;16.50;99.90;;;;;;6186135;23;20172;-93
2022/03/09 13:24:35;;;;;;;27.60;17.13;;;16.70;99.90;;;;;;6184157;23;20347;-91
2022/03/09 13:27:17;;;;;;;36.60;17.73;;;16.60;99.90;;;;;;6159585;23;20165;-90
2022/03/09 13:29:52;;;;;;;25.07;16.00;;;16.70;99.90;;;;;;6183252;23;20197;-89
2022/03/09 13:32:40;;;;;;;24.53;17.83;;;16.80;1.00;;;;;;6183549;23;20168;-90
2022/03/09 13:35:31;;;;;;;23.07;16.20;;;17.00;99.90;;;;;;6159477;23;20153;-90
2022/03/09 13:38:32;;;;;;;25.70;16.87;;;17.10;99.90;;;;;;6176191;23;20154;-91
2022/03/09 13:41:32;;;;;;;24.87;16.63;;;17.40;99.90;;;;;;6183111;23;20293;-89
2022/03/09 13:44:05;;;;;;;25.23;16.40;;;17.30;99.90;;;;;;6177116;23;20138;-88